Station 45029 - Holland Buoy, MI Image indicating link to RSS feed of recent meteorological observations for station 45029


Conditions at 45029 as of
(7:30 am EDT)
1130 GMT on 04/19/2024:
     

Click on the graph icon in the table below to see a time series plot of the last five days of that observation.

5-day plot - Wind Direction Wind Direction (WDIR): NW ( 320 deg true )
5-day plot - Wind Speed Wind Speed (WSPD): 17.5 kts
5-day plot - Wind Gust Wind Gust (GST): 23.3 kts
5-day plot - Wave Height Wave Height (WVHT): 3.6 ft
5-day plot - Dominant Wave Period Dominant Wave Period (DPD): 4 sec
5-day plot - Mean Wave Direction Mean Wave Direction (MWD): NW ( 315 deg true )
5-day plot - Air Temperature Air Temperature (ATMP): 42.6 °F
5-day plot - Water Temperature Water Temperature (WTMP): 43.9 °F
5-day plot - Dew Point Dew Point (DEWP): 34.2 °F
5-day plot - Wind Chill Wind Chill (CHILL): 33.8 °F
5-day plot - Wind Speed at 10 Meters Wind Speed at 10 meters (WSPD10M): 21.4 kts
5-day plot - Wind Speed at 20 Meters Wind Speed at 20 meters (WSPD20M): 23.3 kts
5-day plot -  Wind Speed, Wind Gust and Atmospheric Pressure Combined plot of Wind Speed, Gust, and Air Pressure
Previous observations
TIME
(EDT)
5-day plot - Wind Direction
WDIR
 
5-day plot - Wind Speed
WSPD
kts
5-day plot - Wind Gust
GST
kts
5-day plot - Wave Height
WVHT
ft
5-day plot - Dominant Wave Period
DPD
sec
5-day plot - Average Wave Period
APD
sec
5-day plot - Mean Wave Direction
MWD
 
5-day plot - Atmospheric Pressure
PRES
in
5-day plot - Pressure Tendency
PTDY
in
5-day plot - Air Temperature
ATMP
°F
5-day plot - Water Temperature
WTMP
°F
5-day plot - Dew Point
DEWP
°F
5-day plot - Salinity
SAL
psu
5-day plot - Visibility
VIS
nmi
5-day plot - Tide (above MLLW)
TIDE
ft
2024-04-19 07:20 am NW 19.4 25.3 3.0 4- NW-- 42.8 43.9 34.3---
2024-04-19 07:10 am NW 19.4 25.3 3.6 4- NW-- 43.0 43.9 35.2---
2024-04-19 07:00 am NW 17.5 21.4 3.0 4- NW-- 43.0 43.9 36.7---
2024-04-19 06:50 am NW 15.5 19.4 2.6 4- NW-- 43.0 43.9 37.0---
2024-04-19 06:40 am NW 15.5 21.4 2.6 3- NW-- 43.3 43.9 36.7---
2024-04-19 06:30 am NW 15.5 19.4 2.6 3- NW-- 43.2 43.9 37.6---
2024-04-19 06:20 am NW 13.6 19.4 2.3 3- NW-- 43.2 43.9 37.6---
2024-04-19 06:10 am NW 17.5 21.4 2.3 3- NW-- 44.1 43.9 36.1---
2024-04-19 06:00 am NW 17.5 23.3 2.3 3- NW-- 44.1 43.9 36.1---
2024-04-19 05:50 am NW 17.5 21.4 2.0 3- NW-- 44.1 43.9 37.0---
2024-04-19 05:40 am NW 17.5 21.4 1.6 3- NW-- 44.1 43.9 37.8---
2024-04-19 05:30 am NW 17.5 21.4 1.6 3- NW-- 44.2 43.9 38.7---
2024-04-19 05:20 am NW 15.5 21.4 1.3 2- NW-- 44.1 43.9 40.5---
2024-04-19 05:10 am NW 15.5 19.4 1.3 2- NW-- 44.4 43.9 41.4---
2024-04-19 04:50 amWNW 11.7 15.5 0.7-- NW-- 43.7 43.9 42.8---
2024-04-19 04:40 am NW 9.7 11.7 0.3--NNE-- 43.2 43.9 42.3---
2024-04-19 04:30 am NW 5.8 7.8 0.3-- N-- 42.8 43.9 41.7---
2024-04-19 04:20 am NW 5.8 7.8 0.3-- N-- 43.0 43.9 41.9---
2024-04-19 04:10 amNNW 5.8 5.8 0.3--NNE-- 43.0 43.9 42.1---
2024-04-19 04:00 amNNW 3.9 5.8 0.3-- N-- 42.8 43.9 41.9---
2024-04-19 03:50 amNNW 5.8 5.8 0.7-- N-- 42.8 43.9 41.9---
2024-04-19 03:40 amNNW 5.8 5.8 0.7--NNE-- 43.0 43.9 41.9---
2024-04-19 03:30 amNNW 5.8 5.8 0.7-- N-- 43.2 43.9 42.1---
2024-04-19 03:20 am N 5.8 5.8 0.7-- N-- 43.2 43.9 42.1---
2024-04-19 03:10 am N 5.8 5.8 0.7-- N-- 43.3 44.1 42.3---
2024-04-19 03:00 am N 5.8 5.8 0.7--NNE-- 43.5 44.1 42.3---
2024-04-19 02:50 am N 3.9 5.8 0.7--NNE-- 43.3 44.1 42.1---
2024-04-19 02:40 amNNW 3.9 5.8 0.7--NNE-- 43.3 44.1 42.3---
2024-04-19 02:30 amNNW 3.9 5.8 0.7--NNE-- 43.3 44.1 42.1---
2024-04-19 02:20 amNNW 5.8 5.8 0.7--NNE-- 43.3 43.9 42.3---
2024-04-19 02:10 am N 3.9 5.8 0.7--NNE-- 43.7 43.9 42.3---
2024-04-19 02:00 am N 3.9 3.9 0.7--NNE-- 43.7 43.9 42.4---
2024-04-19 01:50 amNNE 1.9 3.9 0.7-- N-- 43.7 43.9 42.3---
2024-04-19 01:40 am N 1.9 3.9 0.7-- N-- 43.7 43.9 42.3---
2024-04-19 01:30 am N 3.9 3.9 0.7--NNE-- 43.7 43.9 42.3---
2024-04-19 01:00 am N 5.8 5.8 0.7--NNW-- 43.9 43.9 42.4---
2024-04-19 12:50 am N 5.8 7.8 0.7-- N-- 43.7 43.9 42.8---
2024-04-19 12:30 amNNW 7.8 9.7 0.3--NNW-- 43.5 43.9 42.8---
2024-04-19 12:20 am N 7.8 9.7 0.3-- N-- 43.5 43.9 42.8---
2024-04-19 12:00 am N 5.8 5.8 0.3--NNW-- 43.7 43.7 43.2---
2024-04-18 11:50 pm N 5.8 5.8 0.3--NNW-- 43.7 43.9 43.2---
2024-04-18 11:30 pm N 3.9 3.9 0.3--NNW-- 43.7 43.9 43.2---
2024-04-18 11:20 pmNNW 3.9 3.9 0.3--NNW-- 43.9 43.9 43.0---
2024-04-18 11:10 pmNNW 3.9 3.9 0.7--NNE-- 44.4 43.9 43.2---
2024-04-18 11:00 pm- 0.0 1.9 0.7--NNE-- 44.8 43.9 43.2---
2024-04-18 10:50 pm N 1.9 3.9 0.7--NNE-- 45.0 43.9 43.0---
2024-04-18 10:40 pm NE 3.9 3.9 0.7-- N-- 45.0 43.9 43.2---
2024-04-18 10:30 pmENE 3.9 5.8 0.7--NNE-- 44.6 43.9 43.2---
2024-04-18 10:20 pm NE 3.9 5.8 0.7--NNE-- 44.4 43.9 43.2---
2024-04-18 10:00 pm NE 5.8 7.8 0.7-- N-- 44.1 43.9 43.0---
2024-04-18 09:50 pm NE 5.8 7.8 0.7--NNW-- 43.9 43.9 42.6---
2024-04-18 09:40 pm NE 5.8 5.8 0.7-- N-- 43.5 43.9 42.4---
2024-04-18 09:30 pmNNE 5.8 7.8 0.7-- NW-- 43.3 44.1 42.3---
2024-04-18 09:20 pm N 5.8 7.8 0.7-- NW-- 43.2 44.1 42.1---
2024-04-18 09:10 pm NW 5.8 7.8 0.7--NNW-- 43.3 44.1 42.1---
2024-04-18 09:00 pm NW 7.8 9.7 0.7--NNW-- 43.3 44.1 42.3---
2024-04-18 08:50 pm NW 7.8 9.7 0.7--NNW-- 43.5 44.1 42.3---
2024-04-18 08:40 pm N 5.8 9.7 0.7--NNW-- 43.5 44.1 42.3---
2024-04-18 08:30 pm N 5.8 5.8 0.7--NNW-- 43.5 44.1 42.1---
2024-04-18 08:20 pmNNW 5.8 7.8 0.7--NNW-- 43.5 44.1 42.1---
2024-04-18 08:10 pmNNW 5.8 7.8 0.7--NNW-- 43.5 44.1 42.3---
2024-04-18 07:50 pmNNW 5.8 7.8 0.7--NNW-- 43.5 44.1 42.3---
2024-04-18 07:40 pm N 5.8 7.8 0.7--WNW-- 43.5 44.1 42.3---
2024-04-18 07:30 pm N 3.9 5.8 0.7-- NW-- 43.5 44.1 42.4---
2024-04-18 07:20 pm N 3.9 5.8 0.7-- NW-- 43.5 44.1 42.4---
2024-04-18 07:10 pm N 5.8 5.8 0.7-- NW-- 43.5 44.1 42.4---
2024-04-18 07:00 pm N 5.8 5.8 0.7-- NW-- 43.5 44.1 42.4---
2024-04-18 06:50 pm N 3.9 5.8 0.7--NNW-- 43.5 44.1 42.4---
2024-04-18 06:40 pm N 5.8 5.8 0.7--WNW-- 43.3 44.1 42.4---
2024-04-18 06:30 pmNNW 3.9 5.8 0.7--NNW-- 43.3 44.1 42.4---
2024-04-18 06:20 pmNNW 3.9 5.8 0.7--NNW-- 43.3 44.1 42.3---
2024-04-18 06:10 pmNNW 3.9 5.8 0.7--NNW-- 43.3 44.1 42.4---
2024-04-18 06:00 pm NW 3.9 5.8 0.7-- NW-- 43.3 44.1 42.4---
2024-04-18 05:50 pm NW 3.9 5.8 0.7--NNW-- 43.5 44.1 42.4---
2024-04-18 05:40 pm NW 3.9 5.8 0.7-- NW-- 43.5 44.1 42.3---
2024-04-18 05:30 pmWNW 3.9 5.8 1.0 3- NW-- 43.7 44.1 42.3---
2024-04-18 05:20 pmWNW 3.9 3.9 1.0 4- NW-- 43.7 44.1 42.3---
2024-04-18 05:10 pmWNW 3.9 5.8 0.7-- NW-- 43.7 44.1 42.4---
2024-04-18 05:00 pm W 3.9 3.9 1.0 4-NNW-- 43.7 44.1 42.4---
2024-04-18 04:50 pm W 3.9 3.9 1.0 4-NNW-- 43.9 44.1 42.6---
2024-04-18 04:40 pm W 3.9 5.8 1.0 4- NW-- 44.1 44.1 42.6---
2024-04-18 04:30 pmWSW 3.9 3.9 1.0 4- NW-- 44.2 44.1 43.0---
2024-04-18 04:20 pm SW 3.9 3.9 1.0 4-NNW-- 44.2 44.1 43.0---
2024-04-18 04:10 pm SW 3.9 3.9 1.0 4- NW-- 44.2 44.1 43.0---
2024-04-18 04:00 pmSSW 1.9 3.9 1.0 4- NW-- 44.4 44.1 42.8---
2024-04-18 03:50 pm S 1.9 3.9 1.0 3- NW-- 44.4 44.1 42.8---
2024-04-18 03:30 pm S 1.9 3.9 1.0 4- NW-- 44.4 44.1 42.6---
2024-04-18 03:20 pm S 3.9 3.9 1.0 4- NW-- 44.4 44.1 42.4---
2024-04-18 03:10 pm S 1.9 3.9 1.0 4- NW-- 44.4 43.9 42.4---
2024-04-18 03:00 pm S 3.9 5.8 1.0 4-NNW-- 44.2 43.9 42.3---
2024-04-18 02:50 pmSSE 3.9 5.8 1.0 4- NW-- 43.9 43.9 42.3---
2024-04-18 02:40 pm- 0.0 1.9 1.3 4- NW-- 43.7 43.9 41.9---
2024-04-18 02:30 pm- 0.0 1.9 1.3 4- NW-- 43.7 43.9 41.9---
2024-04-18 02:20 pm SW 1.9 3.9 1.3 4- NW-- 43.5 43.9 41.9---
2024-04-18 02:00 pm W 5.8 7.8 1.3 3-WNW-- 43.5 43.9 41.9---
2024-04-18 01:50 pm W 5.8 7.8 1.3 4- NW-- 43.3 43.9 41.7---
2024-04-18 01:40 pmWSW 5.8 7.8 1.3 4- NW-- 43.3 43.9 41.9---
2024-04-18 01:30 pmWSW 5.8 5.8 1.3 4-WNW-- 43.3 43.9 41.9---
2024-04-18 01:20 pmWSW 3.9 5.8 1.3 4-NNW-- 43.3 43.9 41.9---
2024-04-18 01:00 pm W 3.9 3.9 1.3 4-WNW-- 43.5 43.9 41.7---
2024-04-18 12:50 pm W 3.9 5.8 1.3 4- NW-- 43.3 43.9 41.9---
2024-04-18 12:40 pm W 5.8 5.8 1.3 4- NW-- 43.5 43.9 41.9---
2024-04-18 12:30 pm W 3.9 5.8 1.3 4- NW-- 43.9 43.9 41.9---
2024-04-18 12:20 pmWNW 1.9 3.9 1.3 4-WNW-- 43.9 43.9 41.9---
2024-04-18 12:10 pm W 3.9 5.8 1.6 4- NW-- 43.9 43.9 41.9---
2024-04-18 12:00 pm W 5.8 7.8 1.6 4- NW-- 43.9 43.9 41.9---
2024-04-18 11:40 am W 5.8 5.8 1.6 4- NW-- 43.7 43.9 41.9---
2024-04-18 11:30 am W 3.9 3.9 1.6 4- NW-- 43.5 43.7 41.9---
2024-04-18 11:20 amWSW 3.9 3.9 1.6 4- NW-- 43.7 43.7 41.7---
2024-04-18 11:10 am W 3.9 3.9 1.6 4- NW-- 43.7 43.5 41.7---
2024-04-18 11:00 am W 1.9 3.9 2.0 4- NW-- 43.7 43.5 41.7---
2024-04-18 10:50 amWNW 1.9 3.9 2.0 4- NW-- 43.7 43.3 41.7---
2024-04-18 10:30 am W 3.9 5.8 1.6 4-WNW-- 43.5 43.5 41.5---
2024-04-18 10:20 am W 3.9 5.8 2.0 4- NW-- 43.5 43.3 41.5---
2024-04-18 10:10 am W 3.9 3.9 2.0 4- NW-- 43.5 43.3 41.5---
2024-04-18 10:00 am W 3.9 3.9 1.6 4-WNW-- 43.5 43.3 41.5---
2024-04-18 09:50 am W 3.9 5.8 2.0 4-WNW-- 43.3 43.3 41.5---
2024-04-18 09:40 am W 5.8 5.8 1.6 4-WNW-- 43.3 43.3 41.5---
2024-04-18 09:30 am W 5.8 5.8 2.0 4-WNW-- 43.5 43.3 41.4---
2024-04-18 09:20 am W 3.9 5.8 2.0 4-WNW-- 43.5 43.3 41.4---
2024-04-18 09:00 am W 5.8 9.7 2.0 4-WNW-- 43.7 43.3 41.4---
2024-04-18 08:50 am W 5.8 7.8 2.0 4-WNW-- 43.7 43.3 41.4---
2024-04-18 08:40 am W 5.8 7.8 2.0 4-WNW-- 43.3 43.3 41.4---
2024-04-18 08:30 am W 5.8 7.8 2.3 4-WNW-- 43.5 43.3 41.4---
2024-04-18 08:20 amWNW 5.8 9.7 2.0 4-WNW-- 43.7 43.3 41.2---
2024-04-18 08:10 am W 7.8 9.7 2.0 4- NW-- 43.3 43.5 41.4---
2024-04-18 08:00 am W 7.8 9.7 2.0 4- W-- 43.5 43.5 41.4---
2024-04-18 07:50 amWNW 5.8 9.7 2.3 4- W-- 43.5 43.3 41.4---

Detailed Wave Summary
for 45029 as of (7:30 am EDT)
1130 GMT on 04/19/2024:

These wave data are displayed in rounded times.

     

Click on the graph icon in the table below to see a time series plot of the last five days of that observation.

5-day plot - Significant Wave Height Significant Wave Height (WVHT): 3.6 ft
5-day plot - Wave Steepness Wave Steepness (STEEPNESS):VERY_STEEP
Previous observations
TIME
(EDT)
5-day plot - Wave Height
WVHT
ft
5-day plot - Swell Height
SwH
ft
5-day plot - Swell Period
SwP
sec
5-day plot - Swell Direction
SwD
 
5-day plot - Wind Wave Height
WWH
ft
5-day plot - Wind Wave Period
WWP
sec
5-day plot - Wind Wave Direction
WWD
 
5-day plot - Wave Steepness
STEEPNESS
 
5-day plot - Average Wave Period
APD
sec
2024-04-19 07:20 am 3.0------VERY_STEEP-
2024-04-19 07:10 am 3.6------VERY_STEEP-
2024-04-19 07:00 am 3.0------VERY_STEEP-
2024-04-19 06:50 am 2.6------VERY_STEEP-
2024-04-19 06:40 am 2.6------ N/A-
2024-04-19 06:30 am 2.6------ N/A-
2024-04-19 06:20 am 2.3------ N/A-
2024-04-19 06:10 am 2.3------ N/A-
2024-04-19 06:00 am 2.3------ N/A-
2024-04-19 05:50 am 2.0------ N/A-
2024-04-19 05:40 am 1.6------ N/A-
2024-04-19 05:30 am 1.6------ N/A-
2024-04-19 05:20 am 1.3------ N/A-
2024-04-19 05:10 am 1.3------ N/A-
2024-04-19 04:50 am 0.7------ N/A-
2024-04-19 04:40 am 0.3------ N/A-
2024-04-19 04:30 am 0.3------ N/A-
2024-04-19 04:20 am 0.3------ N/A-
2024-04-19 04:10 am 0.3------ N/A-
2024-04-19 04:00 am 0.3------ N/A-
2024-04-19 03:50 am 0.7------ N/A-
2024-04-19 03:40 am 0.7------ N/A-
2024-04-19 03:30 am 0.7------ N/A-
2024-04-19 03:20 am 0.7------ N/A-
2024-04-19 03:10 am 0.7------ N/A-
2024-04-19 03:00 am 0.7------ N/A-
2024-04-19 02:50 am 0.7------ N/A-
2024-04-19 02:40 am 0.7------ N/A-
2024-04-19 02:30 am 0.7------ N/A-
2024-04-19 02:20 am 0.7------ N/A-
2024-04-19 02:10 am 0.7------ N/A-
2024-04-19 02:00 am 0.7------ N/A-
2024-04-19 01:50 am 0.7------ N/A-
2024-04-19 01:40 am 0.7------ N/A-
2024-04-19 01:30 am 0.7------ N/A-
2024-04-19 01:00 am 0.7------ N/A-
2024-04-19 12:50 am 0.7------ N/A-
2024-04-19 12:30 am 0.3------ N/A-
2024-04-19 12:20 am 0.3------ N/A-
2024-04-19 12:00 am 0.3------ N/A-
2024-04-18 11:50 pm 0.3------ N/A-
2024-04-18 11:30 pm 0.3------ N/A-
2024-04-18 11:20 pm 0.3------ N/A-
2024-04-18 11:10 pm 0.7------ N/A-
2024-04-18 11:00 pm 0.7------ N/A-
2024-04-18 10:50 pm 0.7------ N/A-
2024-04-18 10:40 pm 0.7------ N/A-
2024-04-18 10:30 pm 0.7------ N/A-
2024-04-18 10:20 pm 0.7------ N/A-
2024-04-18 10:00 pm 0.7------ N/A-
2024-04-18 09:50 pm 0.7------ N/A-
2024-04-18 09:40 pm 0.7------ N/A-
2024-04-18 09:30 pm 0.7------ N/A-
2024-04-18 09:20 pm 0.7------ N/A-
2024-04-18 09:10 pm 0.7------ N/A-
2024-04-18 09:00 pm 0.7------ N/A-
2024-04-18 08:50 pm 0.7------ N/A-
2024-04-18 08:40 pm 0.7------ N/A-
2024-04-18 08:30 pm 0.7------ N/A-
2024-04-18 08:20 pm 0.7------ N/A-
2024-04-18 08:10 pm 0.7------ N/A-
2024-04-18 07:50 pm 0.7------ N/A-
2024-04-18 07:40 pm 0.7------ N/A-
2024-04-18 07:30 pm 0.7------ N/A-
2024-04-18 07:20 pm 0.7------ N/A-
2024-04-18 07:10 pm 0.7------ N/A-
2024-04-18 07:00 pm 0.7------ N/A-
2024-04-18 06:50 pm 0.7------ N/A-
2024-04-18 06:40 pm 0.7------ N/A-
2024-04-18 06:30 pm 0.7------ N/A-
2024-04-18 06:20 pm 0.7------ N/A-
2024-04-18 06:10 pm 0.7------ N/A-
2024-04-18 06:00 pm 0.7------ N/A-
2024-04-18 05:50 pm 0.7------ N/A-
2024-04-18 05:40 pm 0.7------ N/A-
2024-04-18 05:30 pm 1.0------ N/A-
2024-04-18 05:20 pm 1.0------ N/A-
2024-04-18 05:10 pm 0.7------ N/A-
2024-04-18 05:00 pm 1.0------ N/A-
2024-04-18 04:50 pm 1.0------ N/A-
2024-04-18 04:40 pm 1.0------ N/A-
2024-04-18 04:30 pm 1.0------ N/A-
2024-04-18 04:20 pm 1.0------ N/A-
2024-04-18 04:10 pm 1.0------ N/A-
2024-04-18 04:00 pm 1.0------ N/A-
2024-04-18 03:50 pm 1.0------ N/A-
2024-04-18 03:30 pm 1.0------ N/A-
2024-04-18 03:20 pm 1.0------ N/A-
2024-04-18 03:10 pm 1.0------ N/A-
2024-04-18 03:00 pm 1.0------ N/A-
2024-04-18 02:50 pm 1.0------ N/A-
2024-04-18 02:40 pm 1.3------ N/A-
2024-04-18 02:30 pm 1.3------ N/A-
2024-04-18 02:20 pm 1.3------ N/A-
2024-04-18 02:00 pm 1.3------ N/A-
2024-04-18 01:50 pm 1.3------ N/A-
2024-04-18 01:40 pm 1.3------ N/A-
2024-04-18 01:30 pm 1.3------ N/A-
2024-04-18 01:20 pm 1.3------ N/A-
2024-04-18 01:00 pm 1.3------ N/A-
2024-04-18 12:50 pm 1.3------ N/A-
2024-04-18 12:40 pm 1.3------ N/A-
2024-04-18 12:30 pm 1.3------ N/A-
2024-04-18 12:20 pm 1.3------ N/A-
2024-04-18 12:10 pm 1.6------ N/A-
2024-04-18 12:00 pm 1.6------ N/A-
2024-04-18 11:40 am 1.6------ N/A-
2024-04-18 11:30 am 1.6------ N/A-
2024-04-18 11:20 am 1.6------ N/A-
2024-04-18 11:10 am 1.6------ N/A-
2024-04-18 11:00 am 2.0------ N/A-
2024-04-18 10:50 am 2.0------ N/A-
2024-04-18 10:30 am 1.6------ N/A-
2024-04-18 10:20 am 2.0------ N/A-
2024-04-18 10:10 am 2.0------ N/A-
2024-04-18 10:00 am 1.6------ N/A-
2024-04-18 09:50 am 2.0------ N/A-
2024-04-18 09:40 am 1.6------ N/A-
2024-04-18 09:30 am 2.0------ N/A-
2024-04-18 09:20 am 2.0------ N/A-
2024-04-18 09:00 am 2.0------ N/A-
2024-04-18 08:50 am 2.0------ N/A-
2024-04-18 08:40 am 2.0------ N/A-
2024-04-18 08:30 am 2.3------ N/A-
2024-04-18 08:20 am 2.0------ N/A-
2024-04-18 08:10 am 2.0------ N/A-
2024-04-18 08:00 am 2.0------ N/A-
2024-04-18 07:50 am 2.3------ N/A-

Ocean Conditions at 45029 as of
(7:30 am EDT)
1130 GMT on 04/19/2024:

These oceanographic data are displayed in rounded times.

     

Click on the graph icon in the table below to see a time series plot of the last five days of that observation.

Depth (DEPTH): 3.3 ft
5-day plot - Ocean Temperature Ocean Temperature (OTMP):43.84 °F
Previous observations
TIME
(EDT)
DEPTH
ft
5-day plot - Ocean Temperature
OTMP
°F
5-day plot - Conductivity
COND
mS/cm
5-day plot - Salinity
SAL
psu
5-day plot - Oxygen Concentration
O2%
%
5-day plot - Oxygen Concentration
O2PPM
ppm
5-day plot - Chlorophyll
CLCON
ug/l
5-day plot - Turbidity
TURB
FTU
5-day plot - pH
PH
 
5-day plot - Eh
EH
mv
2024-04-19 07:20 am 3.343.84--------
2024-04-19 07:10 am 3.343.84--------
2024-04-19 07:00 am 3.343.84--------
2024-04-19 06:50 am 3.343.84--------
2024-04-19 06:40 am 3.343.81--------
2024-04-19 06:30 am 3.343.86--------
2024-04-19 06:20 am 3.343.90--------
2024-04-19 06:10 am 3.343.92--------
2024-04-19 06:00 am 3.343.92--------
2024-04-19 05:50 am 3.343.90--------
2024-04-19 05:40 am 3.343.92--------
2024-04-19 05:30 am 3.343.92--------
2024-04-19 05:20 am 3.343.92--------
2024-04-19 05:10 am 3.343.88--------
2024-04-19 04:50 am 3.343.83--------
2024-04-19 04:40 am 3.343.83--------
2024-04-19 04:30 am 3.343.84--------
2024-04-19 04:20 am 3.343.88--------
2024-04-19 04:10 am 3.343.90--------
2024-04-19 04:00 am 3.343.90--------
2024-04-19 03:50 am 3.343.92--------
2024-04-19 03:40 am 3.343.93--------
2024-04-19 03:30 am 3.343.95--------
2024-04-19 03:20 am 3.343.97--------
2024-04-19 03:10 am 3.343.97--------
2024-04-19 03:00 am 3.343.99--------
2024-04-19 02:50 am 3.343.99--------
2024-04-19 02:40 am 3.343.99--------
2024-04-19 02:30 am 3.343.97--------
2024-04-19 02:20 am 3.343.95--------
2024-04-19 02:10 am 3.343.93--------
2024-04-19 02:00 am 3.343.92--------
2024-04-19 01:50 am 3.343.92--------
2024-04-19 01:40 am 3.343.92--------
2024-04-19 01:30 am 3.343.88--------
2024-04-19 01:00 am 3.343.84--------
2024-04-19 12:50 am 3.343.83--------
2024-04-19 12:30 am 3.343.81--------
2024-04-19 12:20 am 3.343.81--------
2024-04-19 12:00 am 3.343.79--------
2024-04-18 11:50 pm 3.343.79--------
2024-04-18 11:30 pm 3.343.81--------
2024-04-18 11:20 pm 3.343.81--------
2024-04-18 11:10 pm 3.343.81--------
2024-04-18 11:00 pm 3.343.83--------
2024-04-18 10:50 pm 3.343.86--------
2024-04-18 10:40 pm 3.343.88--------
2024-04-18 10:30 pm 3.343.88--------
2024-04-18 10:20 pm 3.343.88--------
2024-04-18 10:00 pm 3.343.92--------
2024-04-18 09:50 pm 3.343.92--------
2024-04-18 09:40 pm 3.343.97--------
2024-04-18 09:30 pm 3.343.99--------
2024-04-18 09:20 pm 3.344.01--------
2024-04-18 09:10 pm 3.344.02--------
2024-04-18 09:00 pm 3.344.04--------
2024-04-18 08:50 pm 3.344.04--------
2024-04-18 08:40 pm 3.344.04--------
2024-04-18 08:30 pm 3.344.06--------
2024-04-18 08:20 pm 3.344.02--------
2024-04-18 08:10 pm 3.344.02--------
2024-04-18 07:50 pm 3.344.01--------
2024-04-18 07:40 pm 3.344.01--------
2024-04-18 07:30 pm 3.343.99--------
2024-04-18 07:20 pm 3.343.99--------
2024-04-18 07:10 pm 3.343.99--------
2024-04-18 07:00 pm 3.344.01--------
2024-04-18 06:50 pm 3.344.02--------
2024-04-18 06:40 pm 3.344.02--------
2024-04-18 06:30 pm 3.344.02--------
2024-04-18 06:20 pm 3.344.02--------
2024-04-18 06:10 pm 3.344.04--------
2024-04-18 06:00 pm 3.344.04--------
2024-04-18 05:50 pm 3.344.04--------
2024-04-18 05:40 pm 3.344.04--------
2024-04-18 05:30 pm 3.344.06--------
2024-04-18 05:20 pm 3.344.08--------
2024-04-18 05:10 pm 3.344.10--------
2024-04-18 05:00 pm 3.344.08--------
2024-04-18 04:50 pm 3.344.10--------
2024-04-18 04:40 pm 3.344.08--------
2024-04-18 04:30 pm 3.344.08--------
2024-04-18 04:20 pm 3.344.10--------
2024-04-18 04:10 pm 3.344.11--------
2024-04-18 04:00 pm 3.344.06--------
2024-04-18 03:50 pm 3.344.06--------
2024-04-18 03:30 pm 3.344.01--------
2024-04-18 03:20 pm 3.344.01--------
2024-04-18 03:10 pm 3.343.92--------
2024-04-18 03:00 pm 3.343.90--------
2024-04-18 02:50 pm 3.343.83--------
2024-04-18 02:40 pm 3.343.84--------
2024-04-18 02:30 pm 3.343.86--------
2024-04-18 02:20 pm 3.343.83--------
2024-04-18 02:00 pm 3.343.83--------
2024-04-18 01:50 pm 3.343.83--------
2024-04-18 01:40 pm 3.343.83--------
2024-04-18 01:30 pm 3.343.90--------
2024-04-18 01:20 pm 3.343.86--------
2024-04-18 01:00 pm 3.343.88--------
2024-04-18 12:50 pm 3.343.81--------
2024-04-18 12:40 pm 3.343.81--------
2024-04-18 12:30 pm 3.343.83--------
2024-04-18 12:20 pm 3.343.81--------
2024-04-18 12:10 pm 3.343.83--------
2024-04-18 12:00 pm 3.343.79--------
2024-04-18 11:40 am 3.343.83--------
2024-04-18 11:30 am 3.343.72--------
2024-04-18 11:20 am 3.343.68--------
2024-04-18 11:10 am 3.343.56--------
2024-04-18 11:00 am 3.343.52--------
2024-04-18 10:50 am 3.343.41--------
2024-04-18 10:30 am 3.343.48--------
2024-04-18 10:20 am 3.343.34--------
2024-04-18 10:10 am 3.343.43--------
2024-04-18 10:00 am 3.343.36--------
2024-04-18 09:50 am 3.343.41--------
2024-04-18 09:40 am 3.343.41--------
2024-04-18 09:30 am 3.343.36--------
2024-04-18 09:20 am 3.343.30--------
2024-04-18 09:00 am 3.343.29--------
2024-04-18 08:50 am 3.343.34--------
2024-04-18 08:40 am 3.343.41--------
2024-04-18 08:30 am 3.343.41--------
2024-04-18 08:20 am 3.343.43--------
2024-04-18 08:10 am 3.343.48--------
2024-04-18 08:00 am 3.343.45--------
2024-04-18 07:50 am 3.343.43--------